Aérodrome :







RETROUVEZ-NOUS SUR...

 
LOGIN :

S'inscrire | Disclaimer

   EN    FR    IT 

 









Légende :    VFR   VFR Marginal   IFR   IFR Intensif   IFR Très Intensif
Visi : 
Plafond : 
>= 8 km
>= 3000ft
5 à 8 km
1000 à 3000 ft
1500m à 5 km
500 à 1000 ft
800 à 1500m
200 à 500 ft
< 800m
< 200 ft
Symboles :   Orages  Brouillard  Fortes neiges  Fortes précipitations  Vent > 20 kt






- Altitude de l'aérodrome : 23 ft
- Code IATA : STT


TIST - King

DERNIER METAR :
  • 141153Z 06015G20KT 10SM SCT024 29/23 A3002 RMK AO2 RAB15E24 SLP166 P0000 60000 T02940233 10294 20278 51005

METARs EXPIRÉS :
  • 141053Z 06012G17KT 10SM FEW023 28/23 A3002 RMK AO2 SLP165 T02830233
  • 140953Z AUTO 05010KT 10SM FEW023 FEW028 28/23 A3001 RMK AO2 SLP163 T02830233

TAF TIST
Valide du 14 à 12h jusqu'au 15 à 12h UTC


141128Z 1412/1512 06012KT P6SM FEW025
FM141300 07015KT P6SM FEW030 SCT050
FM142300 06008KT P6SM FEW035
FIR TJZS / Amérique du Nord



MET'MAP, la Météo Aéronautique d'un coup d'oeil ! - Copyright ORBIFLY Décembre 2007 - Disclaimer

ORBIFLY MET'MAP TEAM :

Programmation & Développement : Alexandra Zaïnal
Sur une idée originale de : Baudouin d'Aumeries
Assistance à la programmation : Marc-Olivier Méhu
Soutien technique & logistique : Manuel Goepfert

Contact : metmap@orbifly.com




SOURCES & CREDITS :

   NOAA